createdAt,value
2018-12-22T00:00:04.410Z,96611.48
2018-12-22T00:02:34.369Z,96601.03
2018-12-22T00:05:03.710Z,96611.05
2018-12-22T00:07:33.049Z,96605.10
2018-12-22T00:10:02.282Z,96606.14
2018-12-22T00:12:31.540Z,96616.80
2018-12-22T00:15:00.938Z,96617.09
2018-12-22T00:17:31.162Z,96615.94
2018-12-22T00:20:00.383Z,96616.78
2018-12-22T00:22:29.661Z,96615.94
2018-12-22T00:24:58.932Z,96613.55
2018-12-22T00:27:28.249Z,96611.88
2018-12-22T00:29:57.332Z,96613.02
2018-12-22T00:32:26.651Z,96617.50
2018-12-22T00:34:55.839Z,96621.48
2018-12-22T00:37:24.836Z,96618.73
2018-12-22T00:39:54.291Z,96620.62
2018-12-22T00:42:23.336Z,96626.28
2018-12-22T00:44:52.526Z,96618.14
2018-12-22T00:47:22.150Z,96618.86
2018-12-22T00:49:51.399Z,96616.34
2018-12-22T00:52:20.731Z,96617.37
2018-12-22T00:54:50.354Z,96615.70
2018-12-22T00:57:19.785Z,96612.55
2018-12-22T00:59:49.535Z,96618.41
2018-12-22T01:02:18.850Z,96616.22
2018-12-22T01:04:48.051Z,96619.77
2018-12-22T01:07:17.093Z,96625.08
2018-12-22T01:09:46.359Z,96620.38
2018-12-22T01:12:15.650Z,96616.22
2018-12-22T01:14:44.709Z,96619.97
2018-12-22T01:17:13.822Z,96625.67
2018-12-22T01:19:42.874Z,96624.23
2018-12-22T01:22:13.279Z,96629.34
2018-12-22T01:24:42.870Z,96629.65
2018-12-22T01:27:13.030Z,96635.08
2018-12-22T01:29:42.802Z,96631.00
2018-12-22T01:32:12.658Z,96629.42
2018-12-22T01:34:41.930Z,96630.56
2018-12-22T01:37:11.713Z,96637.22
2018-12-22T01:39:40.823Z,96639.09
2018-12-22T01:42:10.095Z,96633.78
2018-12-22T01:44:39.394Z,96630.03
2018-12-22T01:47:09.118Z,96627.00
2018-12-22T01:49:38.407Z,96624.36
2018-12-22T01:52:07.628Z,96627.47
2018-12-22T01:54:36.820Z,96621.73
2018-12-22T01:57:06.723Z,96609.52
2018-12-22T01:59:35.911Z,96611.08
2018-12-22T02:02:04.902Z,96615.73
2018-12-22T02:04:34.265Z,96618.45
2018-12-22T02:07:03.818Z,96615.13
2018-12-22T02:09:33.257Z,96610.00
2018-12-22T02:12:02.912Z,96617.00
2018-12-22T02:14:32.106Z,96614.69
2018-12-22T02:17:01.091Z,96616.12
2018-12-22T02:19:29.990Z,96615.08
2018-12-22T02:21:59.192Z,96603.92
2018-12-22T02:24:28.273Z,96604.44
2018-12-22T02:26:58.014Z,96604.34
2018-12-22T02:29:27.206Z,96600.67
2018-12-22T02:31:56.502Z,96589.31
2018-12-22T02:34:26.558Z,96593.05
2018-12-22T02:36:55.924Z,96587.44
2018-12-22T02:39:25.245Z,96581.48
2018-12-22T02:41:55.546Z,96574.19
2018-12-22T02:44:24.878Z,96575.74
2018-12-22T02:46:54.152Z,96574.06
2018-12-22T02:49:23.419Z,96571.95
2018-12-22T02:51:52.541Z,96571.75
2018-12-22T02:54:21.728Z,96568.00
2018-12-22T02:56:51.733Z,96566.33
2018-12-22T02:59:20.727Z,96560.07
2018-12-22T03:01:50.008Z,96549.53
2018-12-22T03:04:19.112Z,96558.50
2018-12-22T03:06:48.363Z,96555.80
2018-12-22T03:09:17.804Z,96554.95
2018-12-22T03:11:47.638Z,96555.16
2018-12-22T03:14:17.084Z,96556.19
2018-12-22T03:16:46.328Z,96551.80
2018-12-22T03:19:15.338Z,96541.39
2018-12-22T03:21:44.620Z,96546.29
2018-12-22T03:24:13.926Z,96542.62
2018-12-22T03:26:43.654Z,96526.68
2018-12-22T03:29:15.752Z,96532.49
2018-12-22T03:31:43.868Z,96515.52
2018-12-22T03:34:13.073Z,96512.17
2018-12-22T03:36:42.475Z,96506.11
2018-12-22T03:39:12.168Z,96501.21
2018-12-22T03:41:41.960Z,96495.19
2018-12-22T03:44:11.084Z,96495.70
2018-12-22T03:46:40.378Z,96485.19
2018-12-22T03:49:09.606Z,96479.97
2018-12-22T03:51:39.194Z,96484.55
2018-12-22T03:54:08.486Z,96487.45
2018-12-22T03:56:37.677Z,96488.30
2018-12-22T03:59:06.871Z,96475.27
2018-12-22T04:01:36.194Z,96476.50
2018-12-22T04:04:05.474Z,96476.17
2018-12-22T04:06:35.077Z,96466.28
2018-12-22T04:09:05.274Z,96470.98
2018-12-22T04:11:34.490Z,96492.66
2018-12-22T04:14:03.487Z,96485.44
2018-12-22T04:16:32.708Z,96491.38
2018-12-22T04:19:02.099Z,96513.05
2018-12-22T04:21:31.703Z,96490.66
2018-12-22T04:24:01.272Z,96488.98
2018-12-22T04:26:30.500Z,96498.54
2018-12-22T04:28:59.925Z,96489.58
2018-12-22T04:31:29.192Z,96487.61
2018-12-22T04:33:58.913Z,96486.87
2018-12-22T04:36:28.102Z,96490.20
2018-12-22T04:38:57.307Z,96496.77
2018-12-22T04:41:26.611Z,96493.23
2018-12-22T04:43:56.000Z,96489.56
2018-12-22T04:46:25.301Z,96484.98
2018-12-22T04:48:55.002Z,96499.55
2018-12-22T04:51:24.022Z,96507.04
2018-12-22T04:53:53.096Z,96495.37
2018-12-22T04:56:22.321Z,96494.53
2018-12-22T04:58:51.501Z,96500.07
2018-12-22T05:01:20.719Z,96500.50
2018-12-22T05:03:50.614Z,96515.78
2018-12-22T05:06:19.906Z,96510.23
2018-12-22T05:08:49.228Z,96507.02
2018-12-22T05:11:18.490Z,96512.11
2018-12-22T05:13:47.730Z,96519.30
2018-12-22T05:16:16.997Z,96508.98
2018-12-22T05:18:46.609Z,96513.56
2018-12-22T05:21:16.022Z,96513.95
2018-12-22T05:23:45.306Z,96516.82
2018-12-22T05:26:14.502Z,96525.45
2018-12-22T05:28:43.694Z,96523.17
2018-12-22T05:31:13.023Z,96529.71
2018-12-22T05:33:42.303Z,96522.55
2018-12-22T05:36:11.601Z,96519.53
2018-12-22T05:38:40.687Z,96530.00
2018-12-22T05:41:09.905Z,96531.74
2018-12-22T05:43:39.086Z,96541.48
2018-12-22T05:46:08.665Z,96540.34
2018-12-22T05:48:37.994Z,96563.43
2018-12-22T05:51:07.190Z,96557.11
2018-12-22T05:53:36.382Z,96547.34
2018-12-22T05:56:05.681Z,96564.55
2018-12-22T05:58:34.739Z,96566.16
2018-12-22T06:01:04.162Z,96565.73
2018-12-22T06:03:33.466Z,96571.50
2018-12-22T06:06:03.318Z,96579.95
2018-12-22T06:08:32.718Z,96571.24
2018-12-22T06:11:02.142Z,96586.87
2018-12-22T06:13:32.662Z,96577.84
2018-12-22T06:16:01.922Z,96582.74
2018-12-22T06:18:31.018Z,96594.31
2018-12-22T06:21:00.081Z,96609.28
2018-12-22T06:23:29.326Z,96615.41
2018-12-22T06:25:58.430Z,96610.41
2018-12-22T06:28:28.355Z,96612.53
2018-12-22T06:30:57.590Z,96621.84
2018-12-22T06:33:26.620Z,96626.67
2018-12-22T06:35:55.646Z,96629.59
2018-12-22T06:38:24.885Z,96638.38
2018-12-22T06:40:54.077Z,96642.53
2018-12-22T06:43:23.707Z,96644.98
2018-12-22T06:45:53.257Z,96650.20
2018-12-22T06:48:22.407Z,96659.10
2018-12-22T06:50:51.441Z,96650.05
2018-12-22T06:53:20.469Z,96661.63
2018-12-22T06:55:49.454Z,96657.05
2018-12-22T06:58:18.594Z,96669.30
2018-12-22T07:00:48.060Z,96680.23
2018-12-22T07:03:17.258Z,96685.98
2018-12-22T07:05:46.301Z,96686.95
2018-12-22T07:08:15.675Z,96689.14
2018-12-22T07:10:45.491Z,96703.05
2018-12-22T07:13:15.074Z,96713.57
2018-12-22T07:15:44.341Z,96712.23
2018-12-22T07:18:13.361Z,96732.19
2018-12-22T07:20:42.755Z,96738.25
2018-12-22T07:23:11.945Z,96742.73
2018-12-22T07:25:41.786Z,96749.45
2018-12-22T07:28:10.853Z,96741.50
2018-12-22T07:30:39.927Z,96748.21
2018-12-22T07:33:09.059Z,96754.89
2018-12-22T07:35:38.337Z,96757.73
2018-12-22T07:38:07.902Z,96759.52
2018-12-22T07:40:36.958Z,96757.62
2018-12-22T07:43:06.162Z,96760.45
2018-12-22T07:45:35.303Z,96764.25
2018-12-22T07:48:04.654Z,96772.60
2018-12-22T07:50:33.621Z,96781.91
2018-12-22T07:53:03.867Z,96788.38
2018-12-22T07:55:33.322Z,96792.89
2018-12-22T07:58:02.322Z,96791.63
2018-12-22T08:00:35.023Z,96806.87
2018-12-22T08:03:02.810Z,96813.78
2018-12-22T08:05:38.669Z,96820.38
2018-12-22T08:08:03.950Z,96827.16
2018-12-22T08:10:32.938Z,96831.80
2018-12-22T08:13:02.175Z,96827.53
2018-12-22T08:15:31.562Z,96839.88
2018-12-22T08:18:03.155Z,96857.53
2018-12-22T08:20:32.561Z,96860.98
2018-12-22T08:23:02.374Z,96857.74
2018-12-22T08:25:31.524Z,96874.69
2018-12-22T08:28:00.562Z,96872.09
2018-12-22T08:30:29.665Z,96888.80
2018-12-22T08:32:58.926Z,96883.05
2018-12-22T08:35:31.126Z,96891.84
2018-12-22T08:38:03.047Z,96895.39
2018-12-22T08:40:32.238Z,96904.38
2018-12-22T08:43:01.424Z,96909.09
2018-12-22T08:45:30.954Z,96914.02
2018-12-22T08:48:00.005Z,96927.92
2018-12-22T08:50:29.830Z,96934.92
2018-12-22T08:52:59.148Z,96941.64
2018-12-22T08:55:28.142Z,96947.08
2018-12-22T08:57:57.206Z,96952.61
2018-12-22T09:00:26.456Z,96957.72
2018-12-22T09:02:55.435Z,96975.51
2018-12-22T09:05:25.818Z,96998.34
2018-12-22T09:07:55.047Z,97004.06
2018-12-22T09:10:24.139Z,97009.11
2018-12-22T09:12:53.440Z,97026.58
2018-12-22T09:15:22.956Z,97030.27
2018-12-22T09:17:53.097Z,97028.38
2018-12-22T09:20:22.745Z,97040.91
2018-12-22T09:22:51.634Z,97041.75
2018-12-22T09:25:20.999Z,97040.19
2018-12-22T09:27:50.140Z,97044.52
2018-12-22T09:30:19.371Z,97051.72
2018-12-22T09:32:49.138Z,97060.20
2018-12-22T09:35:18.018Z,97059.61
2018-12-22T09:37:46.924Z,97076.17
2018-12-22T09:40:16.103Z,97077.21
2018-12-22T09:42:45.242Z,97080.97
2018-12-22T09:45:14.286Z,97081.39
2018-12-22T09:47:43.761Z,97080.13
2018-12-22T09:50:13.654Z,97084.11
2018-12-22T09:52:43.180Z,97087.96
2018-12-22T09:55:12.118Z,97079.61
2018-12-22T09:57:40.990Z,97086.20
2018-12-22T10:00:12.346Z,97085.69
2018-12-22T10:02:41.735Z,97096.77
2018-12-22T10:05:10.664Z,97101.48
2018-12-22T10:07:39.729Z,97101.97
2018-12-22T10:10:17.392Z,97102.39
2018-12-22T10:12:46.302Z,97106.38
2018-12-22T10:15:15.785Z,97107.22
2018-12-22T10:17:45.925Z,97107.31
2018-12-22T10:20:14.939Z,97137.64
2018-12-22T10:22:44.234Z,97129.70
2018-12-22T10:25:13.540Z,97133.66
2018-12-22T10:27:42.430Z,97131.26
2018-12-22T10:30:14.755Z,97125.17
2018-12-22T10:32:44.319Z,97128.22
2018-12-22T10:35:22.456Z,97126.53
2018-12-22T10:37:52.102Z,97133.66
2018-12-22T10:40:22.080Z,97133.59
2018-12-22T10:42:52.241Z,97140.77
2018-12-22T10:45:22.057Z,97141.42
2018-12-22T10:47:51.055Z,97152.88
2018-12-22T10:50:21.856Z,97149.45
2018-12-22T10:52:50.890Z,97136.44
2018-12-22T10:55:19.928Z,97141.88
2018-12-22T10:57:48.910Z,97139.25
2018-12-22T11:00:19.117Z,97144.08
2018-12-22T11:02:48.382Z,97130.48
2018-12-22T11:05:17.925Z,97131.28
2018-12-22T11:07:48.487Z,97133.30
2018-12-22T11:10:22.663Z,97135.27
2018-12-22T11:12:54.506Z,97147.77
2018-12-22T11:15:23.884Z,97149.06
2018-12-22T11:17:53.456Z,97152.10
2018-12-22T11:20:23.117Z,97144.46
2018-12-22T11:22:52.349Z,97146.86
2018-12-22T11:25:25.998Z,97155.34
2018-12-22T11:27:55.133Z,97156.70
2018-12-22T11:30:26.685Z,97151.45
2018-12-22T11:32:56.170Z,97152.48
2018-12-22T11:35:25.260Z,97155.02
2018-12-22T11:37:55.174Z,97156.25
2018-12-22T11:40:24.937Z,97157.41
2018-12-22T11:42:54.093Z,97159.48
2018-12-22T11:45:23.556Z,97161.81
2018-12-22T11:48:23.170Z,97171.52
2018-12-22T11:50:52.550Z,97166.92
2018-12-22T11:53:22.311Z,97165.95
2018-12-22T11:55:53.035Z,97161.58
2018-12-22T11:58:22.193Z,97165.77
2018-12-22T12:00:51.783Z,97166.80
2018-12-22T12:03:38.282Z,97166.18
2018-12-22T12:06:09.607Z,97167.44
2018-12-22T12:08:38.994Z,97184.53
2018-12-22T12:11:07.986Z,97175.11
2018-12-22T12:13:37.282Z,97186.51
2018-12-22T12:16:28.568Z,97186.92
2018-12-22T12:19:31.052Z,97188.29
2018-12-22T12:22:00.118Z,97182.75
2018-12-22T12:24:29.363Z,97188.94
2018-12-22T12:26:58.528Z,97196.03
2018-12-22T12:29:27.641Z,97194.80
2018-12-22T12:31:56.735Z,97200.75
2018-12-22T12:34:25.970Z,97202.44
2018-12-22T12:36:55.570Z,97200.95
2018-12-22T12:39:28.187Z,97210.04
2018-12-22T12:41:58.818Z,97206.48
2018-12-22T12:44:27.959Z,97204.92
2018-12-22T12:46:57.143Z,97216.70
2018-12-22T12:49:26.221Z,97212.50
2018-12-22T12:51:55.117Z,97216.52
2018-12-22T12:54:25.452Z,97206.34
2018-12-22T12:56:57.574Z,97216.52
2018-12-22T12:59:27.851Z,97218.52
2018-12-22T13:02:00.940Z,97225.31
2018-12-22T13:04:28.278Z,97219.59
2018-12-22T13:06:57.363Z,97222.38
2018-12-22T13:09:26.390Z,97220.27
2018-12-22T13:11:57.859Z,97222.79
2018-12-22T13:14:28.008Z,97231.17
2018-12-22T13:16:59.762Z,97234.31
2018-12-22T13:19:52.656Z,97237.07
2018-12-22T13:22:21.725Z,97240.44
2018-12-22T13:24:50.872Z,97248.18
2018-12-22T13:27:20.027Z,97249.22
2018-12-22T13:29:50.544Z,97247.75
2018-12-22T13:32:20.417Z,97248.27
2018-12-22T13:34:49.590Z,97248.79
2018-12-22T13:37:30.080Z,97258.31
2018-12-22T13:40:02.931Z,97261.73
2018-12-22T13:42:58.885Z,97253.34
2018-12-22T13:45:37.700Z,97258.50
2018-12-22T13:48:06.998Z,97279.87
2018-12-22T13:50:38.201Z,97280.58
2018-12-22T13:53:09.310Z,97276.12
2018-12-22T13:55:39.092Z,97287.61
2018-12-22T13:58:08.479Z,97288.97
2018-12-22T14:00:42.142Z,97302.89
2018-12-22T14:03:15.633Z,97300.37
2018-12-22T14:05:46.108Z,97294.60
2018-12-22T14:08:15.379Z,97300.69
2018-12-22T14:10:45.078Z,97299.85
2018-12-22T14:13:14.390Z,97288.35
2018-12-22T14:15:50.338Z,97296.61
2018-12-22T14:18:30.631Z,97292.34
2018-12-22T14:20:59.806Z,97309.88
2018-12-22T14:23:34.816Z,97347.06
2018-12-22T14:26:04.181Z,97348.09
2018-12-22T14:28:33.655Z,97341.81
2018-12-22T14:31:02.950Z,97353.91
2018-12-22T14:33:32.133Z,97342.84
2018-12-22T14:36:04.367Z,97363.33
2018-12-22T14:38:33.405Z,97368.30
2018-12-22T14:41:02.602Z,97381.19
2018-12-22T14:43:33.987Z,97369.14
2018-12-22T14:46:06.563Z,97380.86
2018-12-22T14:48:35.720Z,97375.89
2018-12-22T14:51:04.712Z,97378.15
2018-12-22T14:53:34.018Z,97368.77
2018-12-22T14:56:03.304Z,97378.93
2018-12-22T14:58:34.437Z,97384.56
2018-12-22T15:01:04.194Z,97388.36
2018-12-22T15:03:34.659Z,97396.98
2018-12-22T15:06:05.543Z,97397.69
2018-12-22T15:08:34.836Z,97401.91
2018-12-22T15:11:09.091Z,97399.66
2018-12-22T15:13:39.797Z,97415.03
2018-12-22T15:16:09.994Z,97421.27
2018-12-22T15:18:39.203Z,97422.81
2018-12-22T15:21:08.522Z,97419.01
2018-12-22T15:23:37.704Z,97422.67
2018-12-22T15:26:06.667Z,97426.05
2018-12-22T15:28:36.006Z,97426.56
2018-12-22T15:31:06.971Z,97423.70
2018-12-22T15:33:37.652Z,97421.97
2018-12-22T15:36:06.836Z,97434.73
2018-12-22T15:38:36.052Z,97433.17
2018-12-22T15:41:06.749Z,97431.48
2018-12-22T15:43:36.930Z,97432.28
2018-12-22T15:46:06.113Z,97433.30
2018-12-22T15:48:35.431Z,97426.39
2018-12-22T15:51:04.690Z,97424.19
2018-12-22T15:53:34.005Z,97406.84
2018-12-22T15:56:03.162Z,97401.83
2018-12-22T15:58:32.342Z,97450.96
2018-12-22T16:01:05.569Z,97450.63
2018-12-22T16:03:35.408Z,97457.44
2018-12-22T16:06:04.661Z,97442.20
2018-12-22T16:11:04.179Z,97453.41
2018-12-22T16:13:33.187Z,97455.23
2018-12-22T16:16:02.278Z,97459.56
2018-12-22T16:18:31.239Z,97458.28
2018-12-22T16:21:00.719Z,97462.80
2018-12-22T16:23:29.610Z,97461.00
2018-12-22T16:25:58.919Z,97469.82
2018-12-22T16:28:30.719Z,97470.91
2018-12-22T16:31:00.413Z,97477.33
2018-12-22T16:33:29.513Z,97481.52
2018-12-22T16:35:58.546Z,97483.39
2018-12-22T16:38:27.863Z,97490.66
2018-12-22T16:40:56.940Z,97501.03
2018-12-22T16:43:26.239Z,97505.30
2018-12-22T16:45:55.678Z,97504.92
2018-12-22T16:48:26.131Z,97513.41
2018-12-22T16:50:55.612Z,97503.48
2018-12-22T16:53:24.499Z,97487.23
2018-12-22T16:55:53.873Z,97499.20
2018-12-22T16:59:48.512Z,97489.35
2018-12-22T17:02:32.057Z,97489.48
2018-12-22T17:05:02.375Z,97492.02
2018-12-22T17:07:31.314Z,97499.15
2018-12-22T17:10:00.273Z,97509.39
2018-12-22T17:12:29.944Z,97504.08
2018-12-22T17:14:59.294Z,97508.21
2018-12-22T17:17:28.582Z,97507.38
2018-12-22T17:19:59.306Z,97518.58
2018-12-22T17:22:38.418Z,97528.30
2018-12-22T17:25:14.690Z,97531.35
2018-12-22T17:27:44.033Z,97527.41
2018-12-22T17:30:13.088Z,97528.95
2018-12-22T17:32:42.410Z,97528.58
2018-12-22T17:35:13.763Z,97539.13
2018-12-22T17:37:43.985Z,97536.33
2018-12-22T17:40:14.404Z,97541.45
2018-12-22T17:42:43.774Z,97548.58
2018-12-22T17:45:12.968Z,97551.44
2018-12-22T17:47:42.234Z,97560.07
2018-12-22T17:50:11.841Z,97570.45
2018-12-22T17:52:42.635Z,97580.34
2018-12-22T17:55:12.652Z,97582.28
2018-12-22T17:57:41.847Z,97589.41
2018-12-22T18:00:13.141Z,97587.53
2018-12-22T18:02:43.729Z,97596.03
2018-12-22T18:05:13.186Z,97594.80
2018-12-22T18:07:42.614Z,97595.65
2018-12-22T18:10:12.021Z,97601.09
2018-12-22T18:12:41.040Z,97602.19
2018-12-22T18:15:13.066Z,97598.43
2018-12-22T18:17:42.359Z,97605.89
2018-12-22T18:20:11.629Z,97604.34
2018-12-22T18:22:40.954Z,97610.49
2018-12-22T18:25:11.634Z,97607.25
2018-12-22T18:27:41.029Z,97606.84
2018-12-22T18:30:11.761Z,97615.94
2018-12-22T18:32:41.130Z,97618.66
2018-12-22T18:35:11.837Z,97625.61
2018-12-22T18:37:43.043Z,97634.40
2018-12-22T18:40:15.142Z,97633.88
2018-12-22T18:42:52.250Z,97636.61
2018-12-22T18:45:21.396Z,97634.35
2018-12-22T18:47:50.443Z,97636.37
2018-12-22T18:50:24.195Z,97643.17
2018-12-22T18:52:53.458Z,97643.93
2018-12-22T18:55:23.248Z,97649.19
2018-12-22T18:57:54.486Z,97641.34
2018-12-22T19:00:24.437Z,97636.04
2018-12-22T19:02:54.108Z,97637.41
2018-12-22T19:05:23.813Z,97636.48
2018-12-22T19:07:56.239Z,97635.39
2018-12-22T19:10:30.362Z,97639.34
2018-12-22T19:13:00.661Z,97629.99
2018-12-22T19:15:30.123Z,97634.59
2018-12-22T19:17:59.561Z,97641.03
2018-12-22T19:20:37.913Z,97639.15
2018-12-22T19:23:07.843Z,97643.38
2018-12-22T19:25:42.069Z,97647.45
2018-12-22T19:28:15.271Z,97653.75
2018-12-22T19:30:44.594Z,97653.53
2018-12-22T19:33:14.506Z,97649.06
2018-12-22T19:35:44.007Z,97657.75
2018-12-22T19:38:13.743Z,97648.73
2018-12-22T19:40:42.997Z,97660.80
2018-12-22T19:43:13.227Z,97661.00
2018-12-22T19:45:42.414Z,97666.20
2018-12-22T19:48:11.574Z,97672.48
2018-12-22T19:50:40.833Z,97665.87
2018-12-22T19:55:34.382Z,97671.89
2018-12-22T19:58:03.919Z,97685.40
2018-12-22T20:00:33.083Z,97680.39
2018-12-22T20:03:02.986Z,97672.55
2018-12-22T20:05:32.270Z,97667.48
2018-12-22T20:08:01.539Z,97669.06
2018-12-22T20:10:30.730Z,97667.15
2018-12-22T20:13:00.221Z,97678.19
2018-12-22T20:15:29.293Z,97675.65
2018-12-22T20:17:58.338Z,97676.30
2018-12-22T20:20:29.574Z,97671.89
2018-12-22T20:22:58.781Z,97677.13
2018-12-22T20:25:27.879Z,97677.48
2018-12-22T20:27:58.300Z,97690.16
2018-12-22T20:30:27.730Z,97683.24
2018-12-22T20:32:56.874Z,97681.50
2018-12-22T20:35:25.878Z,97679.22
2018-12-22T20:37:55.051Z,97686.01
2018-12-22T20:40:24.189Z,97681.08
2018-12-22T20:42:53.340Z,97688.88
2018-12-22T20:45:22.705Z,97689.50
2018-12-22T20:47:52.041Z,97693.06
2018-12-22T20:50:21.787Z,97695.37
2018-12-22T20:52:50.957Z,97703.35
2018-12-22T20:55:20.299Z,97703.86
2018-12-22T20:57:49.313Z,97699.77
2018-12-22T21:00:18.698Z,97707.20
2018-12-22T21:02:47.766Z,97711.62
2018-12-22T21:05:17.082Z,97710.39
2018-12-22T21:07:46.065Z,97712.09
2018-12-22T21:10:15.134Z,97721.11
2018-12-22T21:12:44.766Z,97711.95
2018-12-22T21:15:13.698Z,97722.14
2018-12-22T21:17:42.998Z,97718.70
2018-12-22T21:20:12.118Z,97714.63
2018-12-22T21:22:41.294Z,97712.93
2018-12-22T21:25:10.396Z,97725.70
2018-12-22T21:27:39.998Z,97724.16
2018-12-22T21:30:09.052Z,97725.23
2018-12-22T21:32:38.153Z,97729.08
2018-12-22T21:35:07.277Z,97727.31
2018-12-22T21:37:36.545Z,97741.33
2018-12-22T21:40:05.790Z,97736.92
2018-12-22T21:42:35.486Z,97739.55
2018-12-22T21:45:04.879Z,97741.02
2018-12-22T21:47:33.993Z,97743.34
2018-12-22T21:50:03.786Z,97733.11
2018-12-22T21:52:33.038Z,97741.03
2018-12-22T21:55:02.280Z,97755.45
2018-12-22T21:57:31.482Z,97756.38
2018-12-22T22:00:00.782Z,97755.72
2018-12-22T22:02:29.848Z,97758.70
2018-12-22T22:04:59.122Z,97765.31
2018-12-22T22:07:28.398Z,97774.70
2018-12-22T22:09:57.591Z,97773.71
2018-12-22T22:12:27.037Z,97780.66
2018-12-22T22:14:56.267Z,97781.69
2018-12-22T22:17:25.253Z,97786.73
2018-12-22T22:19:54.363Z,97781.55
2018-12-22T22:22:25.622Z,97787.24
2018-12-22T22:24:56.888Z,97793.06
2018-12-22T22:27:30.079Z,97796.49
2018-12-22T22:29:59.255Z,97796.92
2018-12-22T22:32:28.883Z,97802.39
2018-12-22T22:34:58.394Z,97804.17
2018-12-22T22:37:28.847Z,97805.53
2018-12-22T22:39:58.372Z,97815.21
2018-12-22T22:42:27.383Z,97812.22
2018-12-22T22:44:56.471Z,97814.80
2018-12-22T22:47:30.903Z,97819.45
2018-12-22T22:50:01.535Z,97829.52
2018-12-22T22:52:31.206Z,97830.72
2018-12-22T22:55:00.363Z,97828.57
2018-12-22T22:57:30.243Z,97835.22
2018-12-22T22:59:59.694Z,97836.96
2018-12-22T23:02:29.041Z,97840.30
2018-12-22T23:04:58.766Z,97836.81
2018-12-22T23:07:28.094Z,97843.17
2018-12-22T23:09:57.337Z,97837.73
2018-12-22T23:12:27.046Z,97833.66
2018-12-22T23:14:56.237Z,97831.30
2018-12-22T23:17:25.546Z,97834.42
2018-12-22T23:19:54.938Z,97839.34
2018-12-22T23:22:24.206Z,97835.50
2018-12-22T23:24:53.446Z,97835.29
2018-12-22T23:27:22.633Z,97837.03
2018-12-22T23:29:52.665Z,97840.78
2018-12-22T23:32:21.845Z,97837.05
2018-12-22T23:34:51.150Z,97833.67
2018-12-22T23:37:20.686Z,97836.79
2018-12-22T23:39:49.845Z,97836.12
2018-12-22T23:42:19.234Z,97841.42
2018-12-22T23:44:48.450Z,97838.73
2018-12-22T23:47:17.659Z,97840.59
2018-12-22T23:49:46.842Z,97830.97
2018-12-22T23:52:16.498Z,97835.73
2018-12-22T23:54:45.747Z,97837.14
2018-12-22T23:57:14.845Z,97840.88
2018-12-22T23:59:44.054Z,97836.98
